Terminal Aerodrome Forecast
Issued by NWS Wilmington, NC

Home | Current Version | Previous Version | Text Only | Print | Product List | Glossary On
Versions: 1 2 3 4 5 6 7 8 9 10 11 12 13 14
247
FTUS42 KILM 131120
TAFFLO
TAF
KFLO 131120Z 1312/1412 33008KT P6SM SKC
     FM131400 35014G22KT P6SM SKC
     FM132200 35010KT P6SM SKC
     FM140200 02008KT P6SM SKC=

USA.gov is the U.S. government's official web portal to all federal, state and local government web resources and services.